Current Weather

Zinder

Zinder, Niger (DRZR)

Report from: Wednesday, April 24, 2024 7:00 PM WAT
Current time: Thursday, April 25, 2024 5:31 AM WAT

Nearby weather – Weather history – Daily summaries
Weather forecast

Temperature40.0°C (104.0°F)
Heat index37.2°C (99.0°F)
Dew point4.0°C (39.2°F)
Winds 4 kts (2.1 m/s, 4.6 mph) Northwest (320°)
Clouds Sky clear
Altimeter29.71 in.Hg (1006 mB)
Relative humidity11 %
Density altitude3,174 ft. (967 m)
Remarks Ceiling and visibility OK
Flight conditions Visual Meteorological Conditions
Raw dataDRZR 241800Z 32004KT CAVOK 40/04 Q1006
An error has occurred. This application may no longer respond until reloaded. Reload 🗙